Beaumagic — PHKH — position and weather

sailwx.info

Track history (hours):
 
Tides and Currents Weather Stations Pressure Air Temp Water Temp Dewpoint Dewpoint Depression Visibility Wind Speed Wind Dir Waves Ship Positions

Beaumagic

Last reported at 2017-Dec-17 17:26 UTC. Time now 2017-Dec-17 17:35 UTC.
Position N 43°21' W 003°03'.

Length 88 m; draft 5.5 m.

Type: Cargo ship. MMSI: 244615000.

Date/timePositionNaut miles runAvg speedWind from/ knotsBaromVisibWave heightAir tempDewpointWater temp
2017-Dec-17 17:26N 43°21' W 003°03'0 0.0
2017-Dec-17 16:59N 43°21' W 003°03'0 0.0
2017-Dec-17 16:29N 43°21' W 003°03'0 0.0
2017-Dec-17 15:59N 43°21' W 003°03'0 0.0
2017-Dec-17 15:26N 43°21' W 003°03'0 0.0
2017-Dec-17 14:59N 43°21' W 003°03'0 0.0
2017-Dec-17 14:29N 43°21' W 003°03'0 0.0
2017-Dec-17 13:59N 43°21' W 003°03'0 0.0
2017-Dec-17 13:26N 43°21' W 003°03'0 0.0
2017-Dec-17 12:56N 43°21' W 003°03'0 0.0
2017-Dec-17 12:26N 43°21' W 003°03'0 0.0
2017-Dec-17 11:59N 43°21' W 003°03'0 0.0
2017-Dec-17 11:30N 43°21' W 003°03'1 2.5
2017-Dec-17 11:00N 43°23' W 003°04'5 9.1
2017-Dec-17 10:30N 43°27' W 003°07'510.2
2017-Dec-17 10:00N 43°32' W 003°09'510.0
2017-Dec-17 09:30N 43°36' W 003°12'5 9.8
2017-Dec-17 09:00N 43°41' W 003°14'5 9.6
2017-Dec-17 08:30N 43°45' W 003°17'510.0
2017-Dec-17 08:00N 43°50' W 003°19'510.1
2017-Dec-17 07:30N 43°54' W 003°22'226 9.8
2017-Dec-16 08:23N 47°26' W 005°17'6 9.5
2017-Dec-16 07:47N 47°32' W 005°20'4 9.6
2017-Dec-16 07:22N 47°35' W 005°23'4 9.8
2017-Dec-16 06:58N 47°39' W 005°25'510.1
2017-Dec-16 06:29N 47°43' W 005°28'510.4
2017-Dec-16 06:00N 47°48' W 005°31'510.3
2017-Dec-16 05:29N 47°53' W 005°33'510.5
2017-Dec-16 05:00N 47°58' W 005°34'510.2
2017-Dec-16 04:30N 48°03' W 005°36'510.0
2017-Dec-16 04:00N 48°08' W 005°38'5 9.8
2017-Dec-16 03:30N 48°12' W 005°41'5 9.5
2017-Dec-16 02:59N 48°17' W 005°43'7 9.4
2017-Dec-16 02:15N 48°23' W 005°47'2 8.2
2017-Dec-16 01:57N 48°26' W 005°48'122 7.2
2017-Dec-15 08:58N 49°45' W 003°26'3 7.3
2017-Dec-15 08:30N 49°46' W 003°21'3 6.7
2017-Dec-15 08:00N 49°48' W 003°16'4 6.4
2017-Dec-15 07:21N 49°50' W 003°11'2 5.9
2017-Dec-15 07:00N 49°51' W 003°08'3 5.6
2017-Dec-15 06:30N 49°52' W 003°04'3 5.2
2017-Dec-15 06:00N 49°54' W 003°01'2 5.0
2017-Dec-15 05:30N 49°55' W 002°58'2 4.3
2017-Dec-15 05:00N 49°57' W 002°55'2 4.1
2017-Dec-15 04:30N 49°57' W 002°52'2 4.1
2017-Dec-15 04:00N 49°58' W 002°49'7 5.0
2017-Dec-15 02:30N 50°01' W 002°38'88 5.9
2017-Dec-14 11:33N 50°26' W 000°26'0 6.6
2017-Dec-14 11:30N 50°27' W 000°26'3 6.7
2017-Dec-14 11:00N 50°28' W 000°21'3 6.7
2017-Dec-14 10:30N 50°29' W 000°16'3 5.9
2017-Dec-14 10:00N 50°30' W 000°12'3 5.3
2017-Dec-14 09:30N 50°30' W 000°08'3 5.1
2017-Dec-14 09:00N 50°31' W 000°04'2 4.7
2017-Dec-14 08:30N 50°32' W 000°00'2 4.4
2017-Dec-14 08:00N 50°32' E 000°03'2 3.9
2017-Dec-14 07:30N 50°33' E 000°06'2 3.4
2017-Dec-14 07:00N 50°34' E 000°09'2 3.1
2017-Dec-14 06:31N 50°34' E 000°11'1 2.9
2017-Dec-14 06:00N 50°34' E 000°13'1 2.9
2017-Dec-14 05:30N 50°35' E 000°15'1 2.7
2017-Dec-14 05:01N 50°35' E 000°17'1 2.9
2017-Dec-14 04:31N 50°36' E 000°20'2 3.1
2017-Dec-14 04:00N 50°36' E 000°22'2 3.7
2017-Dec-14 03:31N 50°37' E 000°25'2 4.0
2017-Dec-14 03:01N 50°37' E 000°28'2 4.4
2017-Dec-14 02:30N 50°38' E 000°31'2 4.8
2017-Dec-14 02:00N 50°39' E 000°34'3 5.1
2017-Dec-14 01:31N 50°41' E 000°37'3 5.6
2017-Dec-14 01:00N 50°42' E 000°41'3 5.5
2017-Dec-14 00:30N 50°44' E 000°45'3 5.5
2017-Dec-14 00:00N 50°45' E 000°48'3 5.2
2017-Dec-13 23:31N 50°47' E 000°52'3 5.2
2017-Dec-13 23:00N 50°48' E 000°55'3 5.2
2017-Dec-13 22:29N 50°50' E 000°58'3 5.7
2017-Dec-13 21:59N 50°52' E 001°02'3 6.0
2017-Dec-13 21:29N 50°53' E 001°06'3 5.8
2017-Dec-13 20:58N 50°55' E 001°09'3 5.5
2017-Dec-13 20:30N 50°57' E 001°13'3 5.3
2017-Dec-13 20:00N 50°59' E 001°16'2 4.5
2017-Dec-13 19:30N 51°00' E 001°19'2 4.3
2017-Dec-13 19:00N 51°01' E 001°21'2 3.9
2017-Dec-13 18:30N 51°03' E 001°24'2 4.8
2017-Dec-13 18:01N 51°04' E 001°27'3 5.9
2017-Dec-13 17:31N 51°06' E 001°30'3 6.1
2017-Dec-13 17:01N 51°08' E 001°34'3 6.8
2017-Dec-13 16:31N 51°10' E 001°38'4 7.8
2017-Dec-13 16:01N 51°13' E 001°43'4 8.1
2017-Dec-13 15:31N 51°16' E 001°46'4 8.5
2017-Dec-13 15:01N 51°20' E 001°49'4 8.2
2017-Dec-13 14:31N 51°23' E 001°53'4 7.8
2017-Dec-13 14:01N 51°27' E 001°56'4 7.5
2017-Dec-13 13:30N 51°29' E 002°00'4 7.3
2017-Dec-13 13:00N 51°32' E 002°04'3 6.9
2017-Dec-13 12:30N 51°35' E 002°08'3 6.6
2017-Dec-13 12:00N 51°37' E 002°12'56 5.9
2017-Dec-13 02:30N 52°04' E 003°32'4 7.7
2017-Dec-13 01:59N 52°04' E 003°39'4 8.1
2017-Dec-13 01:30N 52°04' E 003°45'4 8.0
2017-Dec-13 01:00N 52°03' E 003°51'3 5.4
2017-Dec-13 00:31N 52°02' E 003°55'4 8.9
2017-Dec-13 00:00N 51°60' E 004°02'510.5
2017-Dec-12 23:30N 51°58' E 004°09'5 9.9
2017-Dec-12 23:00N 51°54' E 004°16'2 3.1
2017-Dec-12 22:30N 51°53' E 004°16'0 0.0
2017-Dec-12 21:57N 51°53' E 004°16'0 0.0
2017-Dec-12 21:30N 51°53' E 004°16'0 0.0
2017-Dec-12 21:00N 51°53' E 004°16'0 0.0
2017-Dec-12 20:30N 51°53' E 004°16'0 0.0
2017-Dec-12 20:00N 51°53' E 004°16'0 0.0
2017-Dec-12 19:30N 51°53' E 004°16'0 0.0
2017-Dec-12 19:00N 51°53' E 004°16'0 0.0
2017-Dec-12 18:30N 51°53' E 004°16'0 0.0
2017-Dec-12 18:00N 51°53' E 004°16'0 0.0
2017-Dec-12 17:30N 51°53' E 004°16'0 0.0
2017-Dec-12 17:00N 51°53' E 004°16'0 0.0
2017-Dec-12 16:30N 51°53' E 004°16'0 0.0
2017-Dec-12 16:00N 51°53' E 004°16'0 0.0
2017-Dec-12 15:30N 51°53' E 004°16'0 0.0
2017-Dec-12 15:00N 51°53' E 004°16'0 0.0
2017-Dec-12 14:30N 51°53' E 004°16'0 0.0
2017-Dec-12 14:00N 51°53' E 004°16'0 0.0
2017-Dec-12 13:30N 51°53' E 004°16'0 0.0
2017-Dec-12 13:00N 51°53' E 004°16'0 0.0
2017-Dec-12 12:30N 51°53' E 004°16'0 0.0
2017-Dec-12 12:00N 51°53' E 004°16'0 0.0
2017-Dec-12 11:27N 51°53' E 004°16'0 0.0
2017-Dec-12 11:00N 51°53' E 004°16'0 0.0
2017-Dec-12 10:30N 51°53' E 004°16'0 0.0
2017-Dec-12 09:57N 51°53' E 004°16'0 0.0
2017-Dec-12 09:30N 51°53' E 004°16'0 0.0
2017-Dec-12 09:00N 51°53' E 004°16'0 0.0
2017-Dec-12 08:24N 51°53' E 004°16'0 0.0
2017-Dec-12 08:00N 51°53' E 004°16'0 0.0
2017-Dec-12 07:30N 51°53' E 004°16'0 0.0
2017-Dec-12 06:59N 51°53' E 004°16'0 0.0
2017-Dec-12 06:30N 51°53' E 004°16'0 0.0
2017-Dec-12 05:57N 51°53' E 004°16'0 0.0
2017-Dec-12 05:29N 51°53' E 004°16'0 0.0
2017-Dec-12 05:00N 51°53' E 004°16'0 0.0
2017-Dec-12 04:29N 51°53' E 004°16'0 0.0
2017-Dec-12 04:00N 51°53' E 004°16'0 0.0
2017-Dec-12 03:30N 51°53' E 004°16'0 0.0
2017-Dec-12 03:00N 51°53' E 004°16'0 0.0
2017-Dec-12 02:30N 51°53' E 004°16'0 0.0
2017-Dec-12 01:59N 51°53' E 004°16'0 0.0
2017-Dec-12 01:26N 51°53' E 004°16'0 0.0
2017-Dec-12 01:00N 51°53' E 004°16'0 0.0
2017-Dec-12 00:26N 51°53' E 004°16'0 0.0
2017-Dec-12 00:00N 51°53' E 004°16'0 0.0
2017-Dec-11 23:29N 51°53' E 004°16'0 0.0
2017-Dec-11 22:59N 51°53' E 004°16'0 0.0
2017-Dec-11 22:30N 51°53' E 004°16'0 0.0
2017-Dec-11 22:01N 51°53' E 004°16'1 1.2
2017-Dec-11 21:30N 51°53' E 004°17'2 4.1
2017-Dec-11 21:00N 51°55' E 004°15'612.1
2017-Dec-11 20:31N 51°58' E 004°07'510.3
2017-Dec-11 20:00N 51°60' E 003°59'5 9.3
2017-Dec-11 19:30N 51°60' E 003°52'2 4.9
2017-Dec-11 19:00N 51°58' E 003°48'3 5.4
2017-Dec-11 18:30N 51°56' E 003°49'0 0.2
2017-Dec-11 18:00N 51°55' E 003°48'0 0.0
2017-Dec-11 17:30N 51°55' E 003°48'0 0.0
2017-Dec-11 17:00N 51°55' E 003°48'0 0.0
2017-Dec-11 16:30N 51°55' E 003°48'0 0.0
2017-Dec-11 16:00N 51°55' E 003°48'0 0.0
2017-Dec-11 15:27N 51°55' E 003°48'0 0.0
2017-Dec-11 14:57N 51°55' E 003°48'0 0.0
2017-Dec-11 14:30N 51°55' E 003°48'0 0.0
2017-Dec-11 14:00N 51°55' E 003°48'0 0.0
2017-Dec-11 13:30N 51°55' E 003°48'0 0.1
2017-Dec-11 13:00N 51°55' E 003°48'0 0.1
2017-Dec-11 12:27N 51°56' E 003°48'0 0.1
2017-Dec-11 12:00N 51°56' E 003°48'0 0.0
2017-Dec-11 11:24N 51°56' E 003°48'0 0.1
2017-Dec-11 10:54N 51°56' E 003°48'0 0.1
2017-Dec-11 10:30N 51°56' E 003°48'0 0.0
2017-Dec-11 09:54N 51°56' E 003°48'0 0.0
2017-Dec-11 09:27N 51°56' E 003°48'0 0.0
2017-Dec-11 09:00N 51°56' E 003°48'0 0.0
2017-Dec-11 08:30N 51°56' E 003°48'0 0.0
2017-Dec-11 08:00N 51°56' E 003°49'0 0.0
2017-Dec-11 07:21N 51°56' E 003°49'0 0.0
2017-Dec-11 07:00N 51°56' E 003°49'0 0.0
2017-Dec-11 06:30N 51°56' E 003°49'0 0.1
2017-Dec-11 06:00N 51°56' E 003°49'0 0.0
2017-Dec-11 05:30N 51°56' E 003°49'0 0.0
2017-Dec-11 05:00N 51°56' E 003°49'0 0.0
2017-Dec-11 04:30N 51°56' E 003°49'0 0.0
2017-Dec-11 03:57N 51°56' E 003°49'0 0.0
2017-Dec-11 03:30N 51°56' E 003°49'0 0.0
2017-Dec-11 03:00N 51°56' E 003°49'0 0.0
2017-Dec-11 02:21N 51°56' E 003°49'0 0.0
2017-Dec-11 02:00N 51°56' E 003°49'0 0.1
2017-Dec-11 01:30N 51°56' E 003°49'0 0.0
2017-Dec-11 01:00N 51°56' E 003°49'0 0.0
2017-Dec-11 00:30N 51°56' E 003°49'0 0.0
2017-Dec-11 00:00N 51°55' E 003°49'0 0.0
2017-Dec-10 23:30N 51°56' E 003°49'0 0.1
2017-Dec-10 23:00N 51°56' E 003°49'0 0.1
2017-Dec-10 22:30N 51°56' E 003°49'0 0.0
2017-Dec-10 21:54N 51°56' E 003°49'0 0.0
2017-Dec-10 21:18N 51°56' E 003°49'0 0.0
2017-Dec-10 21:00N 51°56' E 003°49'0 0.0
2017-Dec-10 20:30N 51°56' E 003°49'0 0.0
2017-Dec-10 20:00N 51°56' E 003°49'0 0.0
2017-Dec-10 19:30N 51°56' E 003°49'0 0.0
2017-Dec-10 19:00N 51°56' E 003°49'0 0.0
2017-Dec-10 18:30N 51°56' E 003°49'0 0.1
2017-Dec-10 18:00N 51°56' E 003°49'0 0.0
2017-Dec-10 17:30N 51°56' E 003°49'0 0.1
2017-Dec-10 17:00N 51°56' E 003°49'0 0.0
2017-Dec-10 16:30N 51°56' E 003°49'0 0.0
2017-Dec-10 16:00N 51°56' E 003°49'0 0.2
2017-Dec-10 15:30N 51°56' E 003°49'0 0.1
2017-Dec-10 15:00N 51°56' E 003°49'0 0.0
2017-Dec-10 14:30N 51°56' E 003°49'0 0.2
2017-Dec-10 14:00N 51°56' E 003°48'0 0.1
2017-Dec-10 13:31N 51°56' E 003°48'0 0.0
2017-Dec-10 13:00N 51°56' E 003°48'0 0.0
2017-Dec-10 12:30N 51°56' E 003°48'0 0.6
2017-Dec-10 12:00N 51°56' E 003°48'4 7.1
2017-Dec-10 11:30N 51°58' E 003°43'4 8.5
2017-Dec-10 11:00N 52°02' E 003°41'4 8.0
2017-Dec-10 10:30N 52°05' E 003°36'62 9.2
2017-Dec-10 03:47N 52°39' E 002°11'810.8
2017-Dec-10 03:02N 52°43' E 002°00'311.1
2017-Dec-10 02:44N 52°45' E 001°56'911.6
2017-Dec-10 01:55N 52°51' E 001°44'512.0
2017-Dec-10 01:28N 52°54' E 001°37'612.4
2017-Dec-10 00:57N 52°59' E 001°28'612.4
2017-Dec-10 00:28N 53°01' E 001°19'5011.6
2017-Dec-09 20:12N 53°32' E 000°15'2 9.6
2017-Dec-09 20:00N 53°33' E 000°12'4 8.4
2017-Dec-09 19:30N 53°34' E 000°05'2 4.5
2017-Dec-09 19:00N 53°35' E 000°02'5 9.4
2017-Dec-09 18:30N 53°37' W 000°06'4 7.0
2017-Dec-09 18:00N 53°38' W 000°11'0 0.0
2017-Dec-09 17:26N 53°38' W 000°11'0 0.6
2017-Dec-09 16:59N 53°38' W 000°11'0 0.0
2017-Dec-09 16:29N 53°38' W 000°11'0 0.0
2017-Dec-09 15:59N 53°38' W 000°11'0 0.0
2017-Dec-09 15:29N 53°38' W 000°11'0 0.0
2017-Dec-09 14:59N 53°38' W 000°11'0 0.0
2017-Dec-09 14:29N 53°38' W 000°11'0 0.0
2017-Dec-09 13:59N 53°38' W 000°11'0 0.0
2017-Dec-09 13:29N 53°38' W 000°11'0 0.0
2017-Dec-09 12:59N 53°38' W 000°11'0 0.0
2017-Dec-09 12:29N 53°38' W 000°11'0 0.0
2017-Dec-09 11:59N 53°38' W 000°11'0 0.0
2017-Dec-09 11:26N 53°38' W 000°11'0 0.0
2017-Dec-09 10:59N 53°38' W 000°11'0 0.0
2017-Dec-09 10:26N 53°38' W 000°11'0 0.0
2017-Dec-09 09:50N 53°38' W 000°11'0 0.0
2017-Dec-09 09:29N 53°38' W 000°11'0 0.0
2017-Dec-09 08:59N 53°38' W 000°11'0 0.0
2017-Dec-09 08:26N 53°38' W 000°11'0 0.0
2017-Dec-09 07:59N 53°38' W 000°11'0 0.0
2017-Dec-09 07:29N 53°38' W 000°11'0 0.0
2017-Dec-09 06:59N 53°38' W 000°11'0 0.0
2017-Dec-09 06:29N 53°38' W 000°11'0 0.0
2017-Dec-09 05:59N 53°38' W 000°11'0 0.0
2017-Dec-09 05:29N 53°38' W 000°11'0 0.0
2017-Dec-09 04:56N 53°38' W 000°11'0 0.0
2017-Dec-09 04:29N 53°38' W 000°11'0 0.0
2017-Dec-09 03:59N 53°38' W 000°11'0 0.0
2017-Dec-09 03:29N 53°38' W 000°11'0 0.0
2017-Dec-09 02:59N 53°38' W 000°11'0 0.0
2017-Dec-09 02:29N 53°38' W 000°11'0 0.0
2017-Dec-09 01:56N 53°38' W 000°11'0 0.0
2017-Dec-09 01:29N 53°38' W 000°11'0 0.0
2017-Dec-09 00:59N 53°38' W 000°11'0 0.0
2017-Dec-09 00:26N 53°38' W 000°11'0 0.0
2017-Dec-08 23:59N 53°38' W 000°11'0 0.0
2017-Dec-08 23:26N 53°38' W 000°11'0 0.0
2017-Dec-08 22:56N 53°38' W 000°11'0 0.0
2017-Dec-08 22:29N 53°38' W 000°11'0 0.0
2017-Dec-08 21:59N 53°38' W 000°11'0 0.0
2017-Dec-08 21:29N 53°38' W 000°11'0 0.0
2017-Dec-08 20:59N 53°38' W 000°11'0 0.0
2017-Dec-08 20:29N 53°38' W 000°11'0 0.0
2017-Dec-08 19:59N 53°38' W 000°11'0 0.0
2017-Dec-08 19:29N 53°38' W 000°11'0 0.0
2017-Dec-08 18:59N 53°38' W 000°11'0 0.0
2017-Dec-08 18:26N 53°38' W 000°11'0 0.0
2017-Dec-08 17:59N 53°38' W 000°11'0 0.0
2017-Dec-08 17:29N 53°38' W 000°11'0 0.0
2017-Dec-08 16:53N 53°38' W 000°11'0 0.0
2017-Dec-08 16:29N 53°38' W 000°11'0 0.0
2017-Dec-08 15:59N 53°38' W 000°11'0 0.0
2017-Dec-08 15:29N 53°38' W 000°11'0 0.0
2017-Dec-08 14:59N 53°38' W 000°11'0 0.0
2017-Dec-08 14:29N 53°38' W 000°11'0 0.0
2017-Dec-08 13:59N 53°38' W 000°11'0 0.0
2017-Dec-08 13:29N 53°38' W 000°11'0 0.0
2017-Dec-08 13:00N 53°38' W 000°11'0 0.5
2017-Dec-08 12:30N 53°38' W 000°11'0 0.0
2017-Dec-08 12:00N 53°38' W 000°11'0 0.5
2017-Dec-08 11:30N 53°38' W 000°11'194501.4
2017-Dec-08 11:07N 52°13' E 004°39'1931638.9
2017-Dec-08 11:00N 53°38' W 000°09'1932847.9
2017-Dec-08 10:56N 52°13' E 004°39'189443.5
2017-Dec-08 10:30N 53°36' W 000°03'1891095.0
2017-Dec-08 10:20N 52°13' E 004°39'186567.9
2017-Dec-08 10:00N 53°35' E 000°03'1861072.0
2017-Dec-08 09:50N 52°13' E 004°39'182555.7
2017-Dec-08 09:30N 53°33' E 000°08'1828183.3
2017-Dec-08 09:29N 52°13' E 004°39'178367.8
2017-Dec-08 09:00N 53°33' E 000°15'1782633.8
2017-Dec-08 08:56N 52°13' E 004°39'0 0.0
2017-Dec-08 08:17N 52°13' E 004°39'0 0.0
2017-Dec-08 07:50N 52°13' E 004°39'0 0.0
2017-Dec-08 07:23N 52°13' E 004°39'0 0.0
2017-Dec-08 06:53N 52°13' E 004°39'0 0.0
2017-Dec-08 06:29N 52°13' E 004°39'0 0.0
2017-Dec-08 05:59N 52°13' E 004°39'0 0.0
2017-Dec-08 05:26N 52°13' E 004°39'0 0.0
2017-Dec-08 04:59N 52°13' E 004°39'0 0.0
2017-Dec-08 04:29N 52°13' E 004°39'0 0.0
2017-Dec-08 03:59N 52°13' E 004°39'139545.7
2017-Dec-08 03:44N 53°03' E 001°06'139564.2
2017-Dec-08 03:29N 52°13' E 004°39'1351826.6
2017-Dec-08 03:25N 53°02' E 001°11'135317.9
2017-Dec-08 02:59N 52°13' E 004°39'1311323.9
2017-Dec-08 02:53N 53°00' E 001°19'131325.3
2017-Dec-08 02:29N 52°13' E 004°39'1272210.8
2017-Dec-08 02:26N 52°59' E 001°25'127256.6
2017-Dec-08 01:56N 52°13' E 004°39'1221027.2
2017-Dec-08 01:49N 52°57' E 001°32'122366.5
2017-Dec-08 01:29N 52°13' E 004°39'11985680.8
2017-Dec-08 01:29N 52°55' E 001°36'119217.0
2017-Dec-08 00:56N 52°13' E 004°39'114547.7
2017-Dec-08 00:44N 52°51' E 001°43'114388.2
2017-Dec-08 00:26N 52°13' E 004°39'1111313.1
2017-Dec-08 00:21N 52°50' E 001°46'111304.8
2017-Dec-07 23:59N 52°13' E 004°39'1091163.5
2017-Dec-07 23:53N 52°48' E 001°50'109267.0
2017-Dec-07 23:29N 52°13' E 004°39'105338.7
2017-Dec-07 23:10N 52°45' E 001°55'105436.7
2017-Dec-07 22:56N 52°13' E 004°39'1044368.5
2017-Dec-07 22:55N 52°44' E 001°55'104244.9
2017-Dec-07 22:29N 52°13' E 004°39'0 0.0
2017-Dec-07 21:56N 52°13' E 004°39'0 0.0
2017-Dec-07 21:26N 52°13' E 004°39'1031336.5
2017-Dec-07 21:21N 52°35' E 001°54'103275.7
2017-Dec-07 20:59N 52°13' E 004°39'0 0.0
2017-Dec-07 20:20N 52°13' E 004°39'0 0.0
2017-Dec-07 19:59N 52°13' E 004°39'0 0.0
2017-Dec-07 19:14N 52°13' E 004°39'0 0.0
2017-Dec-07 18:59N 52°13' E 004°39'103438.3
2017-Dec-07 18:45N 52°12' E 001°51'311.1
2017-Dec-07 18:30N 52°09' E 001°50'104277.5
2017-Dec-07 18:08N 52°13' E 004°39'104819.6
2017-Dec-07 18:00N 52°03' E 001°50'1044577.5
2017-Dec-07 17:59N 52°13' E 004°39'106221.7
2017-Dec-07 17:30N 51°57' E 001°49'1064586.6
2017-Dec-07 17:29N 52°13' E 004°39'  
Track history (hours):
 
Tides and Currents Weather Stations Pressure Air Temp Water Temp Dewpoint Dewpoint Depression Visibility Wind Speed Wind Dir Waves Ship Positions

Beaumagic

Last reported at 2017-Dec-17 17:26 UTC. Time now 2017-Dec-17 17:35 UTC.
Position N 43°21' W 003°03'.

Length 88 m; draft 5.5 m.

Type: Cargo ship. MMSI: 244615000.

Date/timePositionNaut miles runAvg speedWind from/ knotsBaromVisibWave heightAir tempDewpointWater temp
2017-Dec-17 17:26N 43°21' W 003°03'0 0.0
2017-Dec-17 16:59N 43°21' W 003°03'0 0.0
2017-Dec-17 16:29N 43°21' W 003°03'0 0.0
2017-Dec-17 15:59N 43°21' W 003°03'0 0.0
2017-Dec-17 15:26N 43°21' W 003°03'0 0.0
2017-Dec-17 14:59N 43°21' W 003°03'0 0.0
2017-Dec-17 14:29N 43°21' W 003°03'0 0.0
2017-Dec-17 13:59N 43°21' W 003°03'0 0.0
2017-Dec-17 13:26N 43°21' W 003°03'0 0.0
2017-Dec-17 12:56N 43°21' W 003°03'0 0.0
2017-Dec-17 12:26N 43°21' W 003°03'0 0.0
2017-Dec-17 11:59N 43°21' W 003°03'0 0.0
2017-Dec-17 11:30N 43°21' W 003°03'1 2.5
2017-Dec-17 11:00N 43°23' W 003°04'5 9.1
2017-Dec-17 10:30N 43°27' W 003°07'510.2
2017-Dec-17 10:00N 43°32' W 003°09'510.0
2017-Dec-17 09:30N 43°36' W 003°12'5 9.8
2017-Dec-17 09:00N 43°41' W 003°14'5 9.6
2017-Dec-17 08:30N 43°45' W 003°17'510.0
2017-Dec-17 08:00N 43°50' W 003°19'510.1
2017-Dec-17 07:30N 43°54' W 003°22'226 9.8
2017-Dec-16 08:23N 47°26' W 005°17'6 9.5
2017-Dec-16 07:47N 47°32' W 005°20'4 9.6
2017-Dec-16 07:22N 47°35' W 005°23'4 9.8
2017-Dec-16 06:58N 47°39' W 005°25'510.1
2017-Dec-16 06:29N 47°43' W 005°28'510.4
2017-Dec-16 06:00N 47°48' W 005°31'510.3
2017-Dec-16 05:29N 47°53' W 005°33'510.5
2017-Dec-16 05:00N 47°58' W 005°34'510.2
2017-Dec-16 04:30N 48°03' W 005°36'510.0
2017-Dec-16 04:00N 48°08' W 005°38'5 9.8
2017-Dec-16 03:30N 48°12' W 005°41'5 9.5
2017-Dec-16 02:59N 48°17' W 005°43'7 9.4
2017-Dec-16 02:15N 48°23' W 005°47'2 8.2
2017-Dec-16 01:57N 48°26' W 005°48'122 7.2
2017-Dec-15 08:58N 49°45' W 003°26'3 7.3
2017-Dec-15 08:30N 49°46' W 003°21'3 6.7
2017-Dec-15 08:00N 49°48' W 003°16'4 6.4
2017-Dec-15 07:21N 49°50' W 003°11'2 5.9
2017-Dec-15 07:00N 49°51' W 003°08'3 5.6
2017-Dec-15 06:30N 49°52' W 003°04'3 5.2
2017-Dec-15 06:00N 49°54' W 003°01'2 5.0
2017-Dec-15 05:30N 49°55' W 002°58'2 4.3
2017-Dec-15 05:00N 49°57' W 002°55'2 4.1
2017-Dec-15 04:30N 49°57' W 002°52'2 4.1
2017-Dec-15 04:00N 49°58' W 002°49'7 5.0
2017-Dec-15 02:30N 50°01' W 002°38'88 5.9
2017-Dec-14 11:33N 50°26' W 000°26'0 6.6
2017-Dec-14 11:30N 50°27' W 000°26'3 6.7
2017-Dec-14 11:00N 50°28' W 000°21'3 6.7
2017-Dec-14 10:30N 50°29' W 000°16'3 5.9
2017-Dec-14 10:00N 50°30' W 000°12'3 5.3
2017-Dec-14 09:30N 50°30' W 000°08'3 5.1
2017-Dec-14 09:00N 50°31' W 000°04'2 4.7
2017-Dec-14 08:30N 50°32' W 000°00'2 4.4
2017-Dec-14 08:00N 50°32' E 000°03'2 3.9
2017-Dec-14 07:30N 50°33' E 000°06'2 3.4
2017-Dec-14 07:00N 50°34' E 000°09'2 3.1
2017-Dec-14 06:31N 50°34' E 000°11'1 2.9
2017-Dec-14 06:00N 50°34' E 000°13'1 2.9
2017-Dec-14 05:30N 50°35' E 000°15'1 2.7
2017-Dec-14 05:01N 50°35' E 000°17'1 2.9
2017-Dec-14 04:31N 50°36' E 000°20'2 3.1
2017-Dec-14 04:00N 50°36' E 000°22'2 3.7
2017-Dec-14 03:31N 50°37' E 000°25'2 4.0
2017-Dec-14 03:01N 50°37' E 000°28'2 4.4
2017-Dec-14 02:30N 50°38' E 000°31'2 4.8
2017-Dec-14 02:00N 50°39' E 000°34'3 5.1
2017-Dec-14 01:31N 50°41' E 000°37'3 5.6
2017-Dec-14 01:00N 50°42' E 000°41'3 5.5
2017-Dec-14 00:30N 50°44' E 000°45'3 5.5
2017-Dec-14 00:00N 50°45' E 000°48'3 5.2
2017-Dec-13 23:31N 50°47' E 000°52'3 5.2
2017-Dec-13 23:00N 50°48' E 000°55'3 5.2
2017-Dec-13 22:29N 50°50' E 000°58'3 5.7
2017-Dec-13 21:59N 50°52' E 001°02'3 6.0
2017-Dec-13 21:29N 50°53' E 001°06'3 5.8
2017-Dec-13 20:58N 50°55' E 001°09'3 5.5
2017-Dec-13 20:30N 50°57' E 001°13'3 5.3
2017-Dec-13 20:00N 50°59' E 001°16'2 4.5
2017-Dec-13 19:30N 51°00' E 001°19'2 4.3
2017-Dec-13 19:00N 51°01' E 001°21'2 3.9
2017-Dec-13 18:30N 51°03' E 001°24'2 4.8
2017-Dec-13 18:01N 51°04' E 001°27'3 5.9
2017-Dec-13 17:31N 51°06' E 001°30'3 6.1
2017-Dec-13 17:01N 51°08' E 001°34'3 6.8
2017-Dec-13 16:31N 51°10' E 001°38'4 7.8
2017-Dec-13 16:01N 51°13' E 001°43'4 8.1
2017-Dec-13 15:31N 51°16' E 001°46'4 8.5
2017-Dec-13 15:01N 51°20' E 001°49'4 8.2
2017-Dec-13 14:31N 51°23' E 001°53'4 7.8
2017-Dec-13 14:01N 51°27' E 001°56'4 7.5
2017-Dec-13 13:30N 51°29' E 002°00'4 7.3
2017-Dec-13 13:00N 51°32' E 002°04'3 6.9
2017-Dec-13 12:30N 51°35' E 002°08'3 6.6
2017-Dec-13 12:00N 51°37' E 002°12'56 5.9
2017-Dec-13 02:30N 52°04' E 003°32'4 7.7
2017-Dec-13 01:59N 52°04' E 003°39'4 8.1
2017-Dec-13 01:30N 52°04' E 003°45'4 8.0
2017-Dec-13 01:00N 52°03' E 003°51'3 5.4
2017-Dec-13 00:31N 52°02' E 003°55'4 8.9
2017-Dec-13 00:00N 51°60' E 004°02'510.5
2017-Dec-12 23:30N 51°58' E 004°09'5 9.9
2017-Dec-12 23:00N 51°54' E 004°16'2 3.1
2017-Dec-12 22:30N 51°53' E 004°16'0 0.0
2017-Dec-12 21:57N 51°53' E 004°16'0 0.0
2017-Dec-12 21:30N 51°53' E 004°16'0 0.0
2017-Dec-12 21:00N 51°53' E 004°16'0 0.0
2017-Dec-12 20:30N 51°53' E 004°16'0 0.0
2017-Dec-12 20:00N 51°53' E 004°16'0 0.0
2017-Dec-12 19:30N 51°53' E 004°16'0 0.0
2017-Dec-12 19:00N 51°53' E 004°16'0 0.0
2017-Dec-12 18:30N 51°53' E 004°16'0 0.0
2017-Dec-12 18:00N 51°53' E 004°16'0 0.0
2017-Dec-12 17:30N 51°53' E 004°16'0 0.0
2017-Dec-12 17:00N 51°53' E 004°16'0 0.0
2017-Dec-12 16:30N 51°53' E 004°16'0 0.0
2017-Dec-12 16:00N 51°53' E 004°16'0 0.0
2017-Dec-12 15:30N 51°53' E 004°16'0 0.0
2017-Dec-12 15:00N 51°53' E 004°16'0 0.0
2017-Dec-12 14:30N 51°53' E 004°16'0 0.0
2017-Dec-12 14:00N 51°53' E 004°16'0 0.0
2017-Dec-12 13:30N 51°53' E 004°16'0 0.0
2017-Dec-12 13:00N 51°53' E 004°16'0 0.0
2017-Dec-12 12:30N 51°53' E 004°16'0 0.0
2017-Dec-12 12:00N 51°53' E 004°16'0 0.0
2017-Dec-12 11:27N 51°53' E 004°16'0 0.0
2017-Dec-12 11:00N 51°53' E 004°16'0 0.0
2017-Dec-12 10:30N 51°53' E 004°16'0 0.0
2017-Dec-12 09:57N 51°53' E 004°16'0 0.0
2017-Dec-12 09:30N 51°53' E 004°16'0 0.0
2017-Dec-12 09:00N 51°53' E 004°16'0 0.0
2017-Dec-12 08:24N 51°53' E 004°16'0 0.0
2017-Dec-12 08:00N 51°53' E 004°16'0 0.0
2017-Dec-12 07:30N 51°53' E 004°16'0 0.0
2017-Dec-12 06:59N 51°53' E 004°16'0 0.0
2017-Dec-12 06:30N 51°53' E 004°16'0 0.0
2017-Dec-12 05:57N 51°53' E 004°16'0 0.0
2017-Dec-12 05:29N 51°53' E 004°16'0 0.0
2017-Dec-12 05:00N 51°53' E 004°16'0 0.0
2017-Dec-12 04:29N 51°53' E 004°16'0 0.0
2017-Dec-12 04:00N 51°53' E 004°16'0 0.0
2017-Dec-12 03:30N 51°53' E 004°16'0 0.0
2017-Dec-12 03:00N 51°53' E 004°16'0 0.0
2017-Dec-12 02:30N 51°53' E 004°16'0 0.0
2017-Dec-12 01:59N 51°53' E 004°16'0 0.0
2017-Dec-12 01:26N 51°53' E 004°16'0 0.0
2017-Dec-12 01:00N 51°53' E 004°16'0 0.0
2017-Dec-12 00:26N 51°53' E 004°16'0 0.0
2017-Dec-12 00:00N 51°53' E 004°16'0 0.0
2017-Dec-11 23:29N 51°53' E 004°16'0 0.0
2017-Dec-11 22:59N 51°53' E 004°16'0 0.0
2017-Dec-11 22:30N 51°53' E 004°16'0 0.0
2017-Dec-11 22:01N 51°53' E 004°16'1 1.2
2017-Dec-11 21:30N 51°53' E 004°17'2 4.1
2017-Dec-11 21:00N 51°55' E 004°15'612.1
2017-Dec-11 20:31N 51°58' E 004°07'510.3
2017-Dec-11 20:00N 51°60' E 003°59'5 9.3
2017-Dec-11 19:30N 51°60' E 003°52'2 4.9
2017-Dec-11 19:00N 51°58' E 003°48'3 5.4
2017-Dec-11 18:30N 51°56' E 003°49'0 0.2
2017-Dec-11 18:00N 51°55' E 003°48'0 0.0
2017-Dec-11 17:30N 51°55' E 003°48'0 0.0
2017-Dec-11 17:00N 51°55' E 003°48'0 0.0
2017-Dec-11 16:30N 51°55' E 003°48'0 0.0
2017-Dec-11 16:00N 51°55' E 003°48'0 0.0
2017-Dec-11 15:27N 51°55' E 003°48'0 0.0
2017-Dec-11 14:57N 51°55' E 003°48'0 0.0
2017-Dec-11 14:30N 51°55' E 003°48'0 0.0
2017-Dec-11 14:00N 51°55' E 003°48'0 0.0
2017-Dec-11 13:30N 51°55' E 003°48'0 0.1
2017-Dec-11 13:00N 51°55' E 003°48'0 0.1
2017-Dec-11 12:27N 51°56' E 003°48'0 0.1
2017-Dec-11 12:00N 51°56' E 003°48'0 0.0
2017-Dec-11 11:24N 51°56' E 003°48'0 0.1
2017-Dec-11 10:54N 51°56' E 003°48'0 0.1
2017-Dec-11 10:30N 51°56' E 003°48'0 0.0
2017-Dec-11 09:54N 51°56' E 003°48'0 0.0
2017-Dec-11 09:27N 51°56' E 003°48'0 0.0
2017-Dec-11 09:00N 51°56' E 003°48'0 0.0
2017-Dec-11 08:30N 51°56' E 003°48'0 0.0
2017-Dec-11 08:00N 51°56' E 003°49'0 0.0
2017-Dec-11 07:21N 51°56' E 003°49'0 0.0
2017-Dec-11 07:00N 51°56' E 003°49'0 0.0
2017-Dec-11 06:30N 51°56' E 003°49'0 0.1
2017-Dec-11 06:00N 51°56' E 003°49'0 0.0
2017-Dec-11 05:30N 51°56' E 003°49'0 0.0
2017-Dec-11 05:00N 51°56' E 003°49'0 0.0
2017-Dec-11 04:30N 51°56' E 003°49'0 0.0
2017-Dec-11 03:57N 51°56' E 003°49'0 0.0
2017-Dec-11 03:30N 51°56' E 003°49'0 0.0
2017-Dec-11 03:00N 51°56' E 003°49'0 0.0
2017-Dec-11 02:21N 51°56' E 003°49'0 0.0
2017-Dec-11 02:00N 51°56' E 003°49'0 0.1
2017-Dec-11 01:30N 51°56' E 003°49'0 0.0
2017-Dec-11 01:00N 51°56' E 003°49'0 0.0
2017-Dec-11 00:30N 51°56' E 003°49'0 0.0
2017-Dec-11 00:00N 51°55' E 003°49'0 0.0
2017-Dec-10 23:30N 51°56' E 003°49'0 0.1
2017-Dec-10 23:00N 51°56' E 003°49'0 0.1
2017-Dec-10 22:30N 51°56' E 003°49'0 0.0
2017-Dec-10 21:54N 51°56' E 003°49'0 0.0
2017-Dec-10 21:18N 51°56' E 003°49'0 0.0
2017-Dec-10 21:00N 51°56' E 003°49'0 0.0
2017-Dec-10 20:30N 51°56' E 003°49'0 0.0
2017-Dec-10 20:00N 51°56' E 003°49'0 0.0
2017-Dec-10 19:30N 51°56' E 003°49'0 0.0
2017-Dec-10 19:00N 51°56' E 003°49'0 0.0
2017-Dec-10 18:30N 51°56' E 003°49'0 0.1
2017-Dec-10 18:00N 51°56' E 003°49'0 0.0
2017-Dec-10 17:30N 51°56' E 003°49'0 0.1
2017-Dec-10 17:00N 51°56' E 003°49'0 0.0
2017-Dec-10 16:30N 51°56' E 003°49'0 0.0
2017-Dec-10 16:00N 51°56' E 003°49'0 0.2
2017-Dec-10 15:30N 51°56' E 003°49'0 0.1
2017-Dec-10 15:00N 51°56' E 003°49'0 0.0
2017-Dec-10 14:30N 51°56' E 003°49'0 0.2
2017-Dec-10 14:00N 51°56' E 003°48'0 0.1
2017-Dec-10 13:31N 51°56' E 003°48'0 0.0
2017-Dec-10 13:00N 51°56' E 003°48'0 0.0
2017-Dec-10 12:30N 51°56' E 003°48'0 0.6
2017-Dec-10 12:00N 51°56' E 003°48'4 7.1
2017-Dec-10 11:30N 51°58' E 003°43'4 8.5
2017-Dec-10 11:00N 52°02' E 003°41'4 8.0
2017-Dec-10 10:30N 52°05' E 003°36'62 9.2
2017-Dec-10 03:47N 52°39' E 002°11'810.8
2017-Dec-10 03:02N 52°43' E 002°00'311.1
2017-Dec-10 02:44N 52°45' E 001°56'911.6
2017-Dec-10 01:55N 52°51' E 001°44'512.0
2017-Dec-10 01:28N 52°54' E 001°37'612.4
2017-Dec-10 00:57N 52°59' E 001°28'612.4
2017-Dec-10 00:28N 53°01' E 001°19'5011.6
2017-Dec-09 20:12N 53°32' E 000°15'2 9.6
2017-Dec-09 20:00N 53°33' E 000°12'4 8.4
2017-Dec-09 19:30N 53°34' E 000°05'2 4.5
2017-Dec-09 19:00N 53°35' E 000°02'5 9.4
2017-Dec-09 18:30N 53°37' W 000°06'4 7.0
2017-Dec-09 18:00N 53°38' W 000°11'0 0.0
2017-Dec-09 17:26N 53°38' W 000°11'0 0.6
2017-Dec-09 16:59N 53°38' W 000°11'0 0.0
2017-Dec-09 16:29N 53°38' W 000°11'0 0.0
2017-Dec-09 15:59N 53°38' W 000°11'0 0.0
2017-Dec-09 15:29N 53°38' W 000°11'0 0.0
2017-Dec-09 14:59N 53°38' W 000°11'0 0.0
2017-Dec-09 14:29N 53°38' W 000°11'0 0.0
2017-Dec-09 13:59N 53°38' W 000°11'0 0.0
2017-Dec-09 13:29N 53°38' W 000°11'0 0.0
2017-Dec-09 12:59N 53°38' W 000°11'0 0.0
2017-Dec-09 12:29N 53°38' W 000°11'0 0.0
2017-Dec-09 11:59N 53°38' W 000°11'0 0.0
2017-Dec-09 11:26N 53°38' W 000°11'0 0.0
2017-Dec-09 10:59N 53°38' W 000°11'0 0.0
2017-Dec-09 10:26N 53°38' W 000°11'0 0.0
2017-Dec-09 09:50N 53°38' W 000°11'0 0.0
2017-Dec-09 09:29N 53°38' W 000°11'0 0.0
2017-Dec-09 08:59N 53°38' W 000°11'0 0.0
2017-Dec-09 08:26N 53°38' W 000°11'0 0.0
2017-Dec-09 07:59N 53°38' W 000°11'0 0.0
2017-Dec-09 07:29N 53°38' W 000°11'0 0.0
2017-Dec-09 06:59N 53°38' W 000°11'0 0.0
2017-Dec-09 06:29N 53°38' W 000°11'0 0.0
2017-Dec-09 05:59N 53°38' W 000°11'0 0.0
2017-Dec-09 05:29N 53°38' W 000°11'0 0.0
2017-Dec-09 04:56N 53°38' W 000°11'0 0.0
2017-Dec-09 04:29N 53°38' W 000°11'0 0.0
2017-Dec-09 03:59N 53°38' W 000°11'0 0.0
2017-Dec-09 03:29N 53°38' W 000°11'0 0.0
2017-Dec-09 02:59N 53°38' W 000°11'0 0.0
2017-Dec-09 02:29N 53°38' W 000°11'0 0.0
2017-Dec-09 01:56N 53°38' W 000°11'0 0.0
2017-Dec-09 01:29N 53°38' W 000°11'0 0.0
2017-Dec-09 00:59N 53°38' W 000°11'0 0.0
2017-Dec-09 00:26N 53°38' W 000°11'0 0.0
2017-Dec-08 23:59N 53°38' W 000°11'0 0.0
2017-Dec-08 23:26N 53°38' W 000°11'0 0.0
2017-Dec-08 22:56N 53°38' W 000°11'0 0.0
2017-Dec-08 22:29N 53°38' W 000°11'0 0.0
2017-Dec-08 21:59N 53°38' W 000°11'0 0.0
2017-Dec-08 21:29N 53°38' W 000°11'0 0.0
2017-Dec-08 20:59N 53°38' W 000°11'0 0.0
2017-Dec-08 20:29N 53°38' W 000°11'0 0.0
2017-Dec-08 19:59N 53°38' W 000°11'0 0.0
2017-Dec-08 19:29N 53°38' W 000°11'0 0.0
2017-Dec-08 18:59N 53°38' W 000°11'0 0.0
2017-Dec-08 18:26N 53°38' W 000°11'0 0.0
2017-Dec-08 17:59N 53°38' W 000°11'0 0.0
2017-Dec-08 17:29N 53°38' W 000°11'0 0.0
2017-Dec-08 16:53N 53°38' W 000°11'0 0.0
2017-Dec-08 16:29N 53°38' W 000°11'0 0.0
2017-Dec-08 15:59N 53°38' W 000°11'0 0.0
2017-Dec-08 15:29N 53°38' W 000°11'0 0.0
2017-Dec-08 14:59N 53°38' W 000°11'0 0.0
2017-Dec-08 14:29N 53°38' W 000°11'0 0.0
2017-Dec-08 13:59N 53°38' W 000°11'0 0.0
2017-Dec-08 13:29N 53°38' W 000°11'0 0.0
2017-Dec-08 13:00N 53°38' W 000°11'0 0.5
2017-Dec-08 12:30N 53°38' W 000°11'0 0.0
2017-Dec-08 12:00N 53°38' W 000°11'0 0.5
2017-Dec-08 11:30N 53°38' W 000°11'194501.4
2017-Dec-08 11:07N 52°13' E 004°39'1931638.9
2017-Dec-08 11:00N 53°38' W 000°09'1932847.9
2017-Dec-08 10:56N 52°13' E 004°39'189443.5
2017-Dec-08 10:30N 53°36' W 000°03'1891095.0
2017-Dec-08 10:20N 52°13' E 004°39'186567.9
2017-Dec-08 10:00N 53°35' E 000°03'1861072.0
2017-Dec-08 09:50N 52°13' E 004°39'182555.7
2017-Dec-08 09:30N 53°33' E 000°08'1828183.3
2017-Dec-08 09:29N 52°13' E 004°39'178367.8
2017-Dec-08 09:00N 53°33' E 000°15'1782633.8
2017-Dec-08 08:56N 52°13' E 004°39'0 0.0
2017-Dec-08 08:17N 52°13' E 004°39'0 0.0
2017-Dec-08 07:50N 52°13' E 004°39'0 0.0
2017-Dec-08 07:23N 52°13' E 004°39'0 0.0
2017-Dec-08 06:53N 52°13' E 004°39'0 0.0
2017-Dec-08 06:29N 52°13' E 004°39'0 0.0
2017-Dec-08 05:59N 52°13' E 004°39'0 0.0
2017-Dec-08 05:26N 52°13' E 004°39'0 0.0
2017-Dec-08 04:59N 52°13' E 004°39'0 0.0
2017-Dec-08 04:29N 52°13' E 004°39'0 0.0
2017-Dec-08 03:59N 52°13' E 004°39'139545.7
2017-Dec-08 03:44N 53°03' E 001°06'139564.2
2017-Dec-08 03:29N 52°13' E 004°39'1351826.6
2017-Dec-08 03:25N 53°02' E 001°11'135317.9
2017-Dec-08 02:59N 52°13' E 004°39'1311323.9
2017-Dec-08 02:53N 53°00' E 001°19'131325.3
2017-Dec-08 02:29N 52°13' E 004°39'1272210.8
2017-Dec-08 02:26N 52°59' E 001°25'127256.6
2017-Dec-08 01:56N 52°13' E 004°39'1221027.2
2017-Dec-08 01:49N 52°57' E 001°32'122366.5
2017-Dec-08 01:29N 52°13' E 004°39'11985680.8
2017-Dec-08 01:29N 52°55' E 001°36'119217.0
2017-Dec-08 00:56N 52°13' E 004°39'114547.7
2017-Dec-08 00:44N 52°51' E 001°43'114388.2
2017-Dec-08 00:26N 52°13' E 004°39'1111313.1
2017-Dec-08 00:21N 52°50' E 001°46'111304.8
2017-Dec-07 23:59N 52°13' E 004°39'1091163.5
2017-Dec-07 23:53N 52°48' E 001°50'109267.0
2017-Dec-07 23:29N 52°13' E 004°39'105338.7
2017-Dec-07 23:10N 52°45' E 001°55'105436.7
2017-Dec-07 22:56N 52°13' E 004°39'1044368.5
2017-Dec-07 22:55N 52°44' E 001°55'104244.9
2017-Dec-07 22:29N 52°13' E 004°39'0 0.0
2017-Dec-07 21:56N 52°13' E 004°39'0 0.0
2017-Dec-07 21:26N 52°13' E 004°39'1031336.5
2017-Dec-07 21:21N 52°35' E 001°54'103275.7
2017-Dec-07 20:59N 52°13' E 004°39'0 0.0
2017-Dec-07 20:20N 52°13' E 004°39'0 0.0
2017-Dec-07 19:59N 52°13' E 004°39'0 0.0
2017-Dec-07 19:14N 52°13' E 004°39'0 0.0
2017-Dec-07 18:59N 52°13' E 004°39'103438.3
2017-Dec-07 18:45N 52°12' E 001°51'311.1
2017-Dec-07 18:30N 52°09' E 001°50'104277.5
2017-Dec-07 18:08N 52°13' E 004°39'104819.6
2017-Dec-07 18:00N 52°03' E 001°50'1044577.5
2017-Dec-07 17:59N 52°13' E 004°39'106221.7
2017-Dec-07 17:30N 51°57' E 001°49'1064586.6
2017-Dec-07 17:29N 52°13' E 004°39'  

Dump ship's entire track history